createdAt,value
2023-08-13T00:00:18.092Z,26.27
2023-08-13T00:02:46.859Z,26.32
2023-08-13T00:05:17.339Z,26.35
2023-08-13T00:07:45.885Z,26.40
2023-08-13T00:10:14.399Z,26.45
2023-08-13T00:12:43.317Z,26.48
2023-08-13T00:15:13.002Z,26.51
2023-08-13T00:17:41.748Z,26.53
2023-08-13T00:20:12.066Z,26.53
2023-08-13T00:22:42.006Z,26.51
2023-08-13T00:25:11.609Z,26.47
2023-08-13T00:27:40.042Z,26.43
2023-08-13T00:30:11.079Z,26.39
2023-08-13T00:32:39.550Z,26.39
2023-08-13T00:35:09.019Z,26.38
2023-08-13T00:37:37.548Z,26.38
2023-08-13T00:40:10.325Z,26.37
2023-08-13T00:42:38.823Z,26.40
2023-08-13T00:45:09.306Z,26.39
2023-08-13T00:47:38.389Z,26.42
2023-08-13T00:50:11.463Z,26.42
2023-08-13T00:52:40.488Z,26.48
2023-08-13T00:55:11.794Z,26.48
2023-08-13T00:57:40.800Z,26.51
2023-08-13T01:00:12.065Z,26.51
2023-08-13T01:02:40.742Z,26.52
2023-08-13T01:05:09.497Z,26.54
2023-08-13T01:07:48.617Z,26.54
2023-08-13T01:10:29.016Z,26.56
2023-08-13T01:13:05.458Z,26.57
2023-08-13T01:15:39.172Z,26.61
2023-08-13T01:18:09.513Z,26.61
2023-08-13T01:20:39.678Z,26.63
2023-08-13T01:23:09.679Z,26.67
2023-08-13T01:25:39.249Z,26.68
2023-08-13T01:28:17.641Z,26.68
2023-08-13T01:30:50.842Z,26.70
2023-08-13T01:33:28.121Z,26.71
2023-08-13T01:35:59.372Z,26.72
2023-08-13T01:38:30.321Z,26.75
2023-08-13T01:40:59.865Z,26.77
2023-08-13T01:43:28.427Z,26.75
2023-08-13T01:45:57.260Z,26.73
2023-08-13T01:48:25.825Z,26.70
2023-08-13T01:50:54.331Z,26.68
2023-08-13T01:53:23.173Z,26.65
2023-08-13T01:55:53.289Z,26.60
2023-08-13T01:58:21.861Z,26.55
2023-08-13T02:00:50.453Z,26.51
2023-08-13T02:03:19.056Z,26.47
2023-08-13T02:05:47.615Z,26.41
2023-08-13T02:08:16.117Z,26.37
2023-08-13T02:10:44.692Z,26.32
2023-08-13T02:13:14.633Z,26.27
2023-08-13T02:15:43.301Z,26.23
2023-08-13T02:18:11.860Z,26.18
2023-08-13T02:20:40.343Z,26.14
2023-08-13T02:23:08.897Z,26.12
2023-08-13T02:25:38.851Z,26.09
2023-08-13T02:28:07.709Z,26.07
2023-08-13T02:30:39.148Z,26.03
2023-08-13T02:33:08.061Z,26.04
2023-08-13T02:35:36.515Z,26.02
2023-08-13T02:38:05.230Z,26.00
2023-08-13T02:40:33.671Z,25.97
2023-08-13T02:43:02.165Z,25.93
2023-08-13T02:45:30.806Z,25.89
2023-08-13T02:48:01.036Z,25.84
2023-08-13T02:50:29.680Z,25.80
2023-08-13T02:52:58.160Z,25.75
2023-08-13T02:55:26.794Z,25.70
2023-08-13T03:00:26.659Z,25.61
2023-08-13T03:02:55.231Z,25.59
2023-08-13T03:05:25.054Z,25.56
2023-08-13T03:07:53.604Z,25.55
2023-08-13T03:10:22.053Z,25.53
2023-08-13T03:12:50.721Z,25.50
2023-08-13T03:15:19.203Z,25.47
2023-08-13T03:17:47.833Z,25.46
2023-08-13T03:20:16.526Z,25.43
2023-08-13T03:22:46.754Z,25.39
2023-08-13T03:25:15.283Z,25.36
2023-08-13T03:27:43.765Z,25.32
2023-08-13T03:30:12.649Z,25.29
2023-08-13T03:32:41.132Z,25.27
2023-08-13T03:35:10.533Z,25.23
2023-08-13T03:37:39.074Z,25.20
2023-08-13T03:40:11.098Z,25.17
2023-08-13T03:42:39.579Z,25.15
2023-08-13T03:45:10.445Z,25.12
2023-08-13T03:47:39.745Z,25.10
2023-08-13T03:50:09.033Z,25.08
2023-08-13T03:52:37.532Z,25.07
2023-08-13T03:55:08.862Z,25.06
2023-08-13T03:57:37.384Z,25.05
2023-08-13T04:00:07.868Z,25.04
2023-08-13T04:02:40.614Z,25.04
2023-08-13T04:05:09.894Z,25.05
2023-08-13T04:07:38.331Z,25.05
2023-08-13T04:10:09.580Z,25.05
2023-08-13T04:12:38.085Z,25.07
2023-08-13T04:15:08.342Z,25.08
2023-08-13T04:17:36.861Z,25.10
2023-08-13T04:20:06.734Z,25.13
2023-08-13T04:22:35.302Z,25.17
2023-08-13T04:25:03.845Z,25.20
2023-08-13T04:27:33.764Z,25.23
2023-08-13T04:30:02.184Z,25.27
2023-08-13T04:32:30.780Z,25.30
2023-08-13T04:34:59.467Z,25.35
2023-08-13T04:37:27.930Z,25.41
2023-08-13T04:39:58.865Z,25.46
2023-08-13T04:42:27.370Z,25.54
2023-08-13T04:44:57.248Z,25.60
2023-08-13T04:47:25.637Z,25.68
2023-08-13T04:49:54.262Z,25.75
2023-08-13T04:52:22.770Z,25.86
2023-08-13T04:54:51.403Z,25.96
2023-08-13T04:57:19.854Z,26.07
2023-08-13T04:59:48.362Z,26.19
2023-08-13T05:02:18.221Z,26.32
2023-08-13T05:04:46.701Z,26.45
2023-08-13T05:07:15.297Z,26.59
2023-08-13T05:09:43.813Z,26.68
2023-08-13T05:12:12.526Z,26.77
2023-08-13T05:14:41.250Z,26.80
2023-08-13T05:17:21.020Z,26.80
2023-08-13T05:19:50.167Z,26.86
2023-08-13T05:22:18.907Z,26.91
2023-08-13T05:24:48.554Z,26.93
2023-08-13T05:27:17.229Z,26.95
2023-08-13T05:29:45.750Z,26.92
2023-08-13T05:32:15.028Z,26.90
2023-08-13T05:34:45.768Z,26.87
2023-08-13T05:37:14.354Z,26.86
2023-08-13T05:39:42.815Z,26.84
2023-08-13T05:42:11.350Z,26.85
2023-08-13T05:44:40.061Z,26.85
2023-08-13T05:47:10.508Z,26.87
2023-08-13T05:49:40.548Z,26.86
2023-08-13T05:52:10.397Z,26.83
2023-08-13T05:54:38.785Z,26.81
2023-08-13T05:57:07.610Z,26.79
2023-08-13T05:59:36.056Z,26.78
2023-08-13T06:02:04.565Z,26.77
2023-08-13T06:04:35.957Z,26.78
2023-08-13T06:07:04.877Z,26.80
2023-08-13T06:09:35.216Z,26.89
2023-08-13T06:12:03.898Z,27.01
2023-08-13T06:14:32.449Z,27.08
2023-08-13T06:17:13.831Z,27.14
2023-08-13T06:19:43.807Z,27.28
2023-08-13T06:22:13.088Z,27.42
2023-08-13T06:24:43.482Z,27.59
2023-08-13T06:27:12.293Z,27.77
2023-08-13T06:29:48.830Z,27.92
2023-08-13T06:32:24.483Z,28.07
2023-08-13T06:34:53.024Z,28.19
2023-08-13T06:37:21.507Z,28.33
2023-08-13T06:39:51.333Z,28.50
2023-08-13T06:42:19.835Z,28.65
2023-08-13T06:44:48.411Z,28.80
2023-08-13T06:47:16.896Z,28.92
2023-08-13T06:49:45.400Z,29.06
2023-08-13T06:52:14.310Z,29.18
2023-08-13T06:54:42.944Z,29.23
2023-08-13T06:57:13.019Z,29.23
2023-08-13T06:59:42.275Z,29.23
2023-08-13T07:02:10.791Z,29.24
2023-08-13T07:04:39.440Z,29.33
2023-08-13T07:07:08.058Z,29.48
2023-08-13T07:09:36.552Z,29.63
2023-08-13T07:12:06.952Z,29.72
2023-08-13T07:14:36.794Z,29.76
2023-08-13T07:17:05.908Z,29.81
2023-08-13T07:19:34.578Z,29.85
2023-08-13T07:22:03.073Z,29.85
2023-08-13T07:24:31.550Z,29.86
2023-08-13T07:26:59.992Z,29.91
2023-08-13T07:29:28.945Z,29.91
2023-08-13T07:31:58.946Z,29.91
2023-08-13T07:34:27.539Z,29.97
2023-08-13T07:36:55.999Z,30.07
2023-08-13T07:39:24.701Z,30.21
2023-08-13T07:41:53.628Z,30.36
2023-08-13T07:44:22.138Z,30.50
2023-08-13T07:46:51.973Z,30.63
2023-08-13T07:49:21.880Z,30.75
2023-08-13T07:51:50.360Z,30.86
2023-08-13T07:54:19.743Z,30.95
2023-08-13T07:56:49.141Z,31.06
2023-08-13T07:59:17.638Z,31.12
2023-08-13T08:01:46.162Z,31.18
2023-08-13T08:04:14.895Z,31.28
2023-08-13T08:06:44.728Z,31.36
2023-08-13T08:09:13.235Z,31.44
2023-08-13T08:11:41.802Z,31.50
2023-08-13T08:14:10.406Z,31.57
2023-08-13T08:16:39.018Z,31.68
2023-08-13T08:19:07.515Z,31.77
2023-08-13T08:21:35.986Z,31.86
2023-08-13T08:24:06.909Z,31.97
2023-08-13T08:26:35.413Z,32.08
2023-08-13T08:29:04.084Z,32.19
2023-08-13T08:31:32.778Z,32.31
2023-08-13T08:34:01.332Z,32.43
2023-08-13T08:36:29.973Z,32.54
2023-08-13T08:38:58.408Z,32.66
2023-08-13T08:41:32.434Z,32.77
2023-08-13T08:44:01.695Z,32.87
2023-08-13T08:46:30.949Z,33.01
2023-08-13T08:49:02.087Z,33.07
2023-08-13T08:51:31.169Z,33.14
2023-08-13T08:54:01.546Z,33.23
2023-08-13T08:56:31.507Z,33.30
2023-08-13T08:59:00.092Z,33.37
2023-08-13T09:01:28.679Z,33.37
2023-08-13T09:03:57.708Z,33.40
2023-08-13T09:06:26.322Z,33.42
2023-08-13T09:08:55.098Z,33.45
2023-08-13T09:11:23.734Z,33.49
2023-08-13T09:13:53.679Z,33.52
2023-08-13T09:16:22.992Z,33.54
2023-08-13T09:19:04.293Z,33.57
2023-08-13T09:21:41.441Z,33.58
2023-08-13T09:24:11.415Z,33.58
2023-08-13T09:26:39.976Z,33.61
2023-08-13T09:29:10.982Z,33.61
2023-08-13T09:31:39.651Z,33.62
2023-08-13T09:34:08.204Z,33.67
2023-08-13T09:36:37.195Z,33.74
2023-08-13T09:39:08.678Z,33.74
2023-08-13T09:41:38.142Z,33.70
2023-08-13T09:44:15.187Z,33.73
2023-08-13T09:46:45.812Z,33.84
2023-08-13T09:49:16.569Z,33.92
2023-08-13T09:51:49.005Z,33.99
2023-08-13T09:54:30.553Z,34.03
2023-08-13T09:57:05.599Z,34.08
2023-08-13T09:59:38.160Z,34.10
2023-08-13T10:02:09.253Z,34.13
2023-08-13T10:04:41.292Z,34.17
2023-08-13T10:07:10.568Z,34.20
2023-08-13T10:09:40.511Z,34.22
2023-08-13T10:12:11.927Z,34.20
2023-08-13T10:14:42.218Z,34.21
2023-08-13T10:17:10.756Z,34.23
2023-08-13T10:19:41.631Z,34.23
2023-08-13T10:22:12.373Z,34.26
2023-08-13T10:24:45.033Z,34.25
2023-08-13T10:27:14.914Z,34.26
2023-08-13T10:29:45.321Z,34.22
2023-08-13T10:32:15.426Z,34.23
2023-08-13T10:34:48.926Z,34.25
2023-08-13T10:37:19.749Z,34.31
2023-08-13T10:39:49.825Z,34.40
2023-08-13T10:42:53.859Z,34.38
2023-08-13T10:45:26.733Z,34.46
2023-08-13T10:47:58.741Z,34.64
2023-08-13T10:50:37.228Z,34.91
2023-08-13T10:53:11.155Z,35.32
2023-08-13T10:55:43.133Z,35.80
2023-08-13T10:58:26.691Z,36.30
2023-08-13T11:01:01.293Z,36.86
2023-08-13T11:03:32.582Z,37.46
2023-08-13T11:06:01.680Z,38.04
2023-08-13T11:08:46.837Z,38.54
2023-08-13T11:11:17.315Z,38.99
2023-08-13T11:13:47.139Z,39.34
2023-08-13T11:16:17.227Z,39.69
2023-08-13T11:18:46.400Z,40.12
2023-08-13T11:21:15.219Z,40.50
2023-08-13T11:23:44.070Z,40.94
2023-08-13T11:26:12.620Z,41.34
2023-08-13T11:28:43.638Z,41.57
2023-08-13T11:31:12.126Z,41.82
2023-08-13T11:33:42.102Z,42.19
2023-08-13T11:36:10.880Z,42.62
2023-08-13T11:38:39.539Z,43.09
2023-08-13T11:41:14.002Z,43.52
2023-08-13T11:43:42.521Z,43.92
2023-08-13T11:46:11.095Z,44.22
2023-08-13T11:48:41.209Z,44.58
2023-08-13T11:51:23.635Z,44.99
2023-08-13T11:53:52.683Z,45.41
2023-08-13T11:56:21.792Z,45.68
2023-08-13T11:58:51.979Z,45.94
2023-08-13T12:01:20.603Z,46.28
2023-08-13T12:03:51.929Z,46.48
2023-08-13T12:06:20.478Z,46.57
2023-08-13T12:08:49.061Z,46.80
2023-08-13T12:11:18.271Z,47.12
2023-08-13T12:13:47.695Z,47.36
2023-08-13T12:16:16.686Z,47.63
2023-08-13T12:18:45.768Z,48.01
2023-08-13T12:21:15.680Z,48.43
2023-08-13T12:23:44.192Z,48.80
2023-08-13T12:26:13.179Z,49.03
2023-08-13T12:28:41.703Z,49.17
2023-08-13T12:31:10.175Z,49.21
2023-08-13T12:33:38.683Z,49.46
2023-08-13T12:36:07.439Z,49.64
2023-08-13T12:38:38.501Z,49.71
2023-08-13T12:41:07.676Z,49.75
2023-08-13T12:43:38.152Z,49.76
2023-08-13T12:46:08.136Z,49.85
2023-08-13T12:48:38.911Z,50.14
2023-08-13T12:51:07.608Z,50.49
2023-08-13T12:53:37.418Z,50.73
2023-08-13T12:56:06.565Z,51.06
2023-08-13T12:58:36.558Z,51.51
2023-08-13T13:01:05.155Z,51.68
2023-08-13T13:03:33.714Z,51.67
2023-08-13T13:06:02.293Z,51.71
2023-08-13T13:08:30.859Z,51.90
2023-08-13T13:11:01.024Z,52.06
2023-08-13T13:13:30.541Z,51.97
2023-08-13T13:15:59.107Z,51.77
2023-08-13T13:18:27.667Z,51.62
2023-08-13T13:20:56.291Z,51.59
2023-08-13T13:23:24.885Z,51.56
2023-08-13T13:25:53.397Z,51.59
2023-08-13T13:28:23.592Z,51.72
2023-08-13T13:30:52.162Z,51.67
2023-08-13T13:33:21.587Z,51.88
2023-08-13T13:35:50.165Z,52.28
2023-08-13T13:38:18.615Z,52.64
2023-08-13T13:40:47.144Z,52.82
2023-08-13T13:43:15.763Z,52.92
2023-08-13T13:45:45.726Z,52.96
2023-08-13T13:48:14.303Z,52.98
2023-08-13T13:50:42.967Z,53.04
2023-08-13T13:53:19.885Z,52.98
2023-08-13T13:55:49.906Z,52.89
2023-08-13T13:58:18.573Z,52.97
2023-08-13T14:00:50.337Z,52.99
2023-08-13T14:03:19.996Z,52.70
2023-08-13T14:05:53.618Z,52.26
2023-08-13T14:08:22.246Z,51.80
2023-08-13T14:10:50.776Z,51.32
2023-08-13T14:13:19.401Z,51.01
2023-08-13T14:15:49.324Z,50.87
2023-08-13T14:18:17.859Z,50.82
2023-08-13T14:20:46.412Z,50.86
2023-08-13T14:23:14.936Z,50.91
2023-08-13T14:25:43.544Z,50.97
2023-08-13T14:28:12.150Z,50.97
2023-08-13T14:30:40.876Z,50.90
2023-08-13T14:33:10.911Z,50.88
2023-08-13T14:35:39.430Z,50.94
2023-08-13T14:38:08.013Z,51.04
2023-08-13T14:40:36.622Z,51.32
2023-08-13T14:43:05.395Z,51.36
2023-08-13T14:45:33.963Z,51.23
2023-08-13T14:48:02.675Z,50.91
2023-08-13T14:50:32.618Z,50.60
2023-08-13T14:53:01.172Z,50.30
2023-08-13T14:55:29.778Z,50.22
2023-08-13T14:57:58.319Z,50.22
2023-08-13T15:00:27.184Z,50.23
2023-08-13T15:02:56.951Z,49.86
2023-08-13T15:05:25.552Z,49.14
2023-08-13T15:07:55.454Z,48.13
2023-08-13T15:10:24.014Z,47.06
2023-08-13T15:12:52.554Z,46.09
2023-08-13T15:15:21.246Z,45.24
2023-08-13T15:17:50.806Z,44.50
2023-08-13T15:20:20.224Z,43.79
2023-08-13T15:22:48.854Z,43.28
2023-08-13T15:25:19.103Z,43.15
2023-08-13T15:27:47.619Z,43.17
2023-08-13T15:30:18.259Z,42.99
2023-08-13T15:32:47.111Z,42.68
2023-08-13T15:35:15.666Z,42.35
2023-08-13T15:37:44.375Z,42.01
2023-08-13T15:40:15.161Z,41.68
2023-08-13T15:42:45.496Z,41.38
2023-08-13T15:45:14.128Z,41.08
2023-08-13T15:47:42.636Z,40.77
2023-08-13T15:50:11.861Z,40.47
2023-08-13T15:52:40.401Z,40.19
2023-08-13T15:55:09.520Z,39.93
2023-08-13T15:57:38.481Z,39.67
2023-08-13T16:00:10.322Z,39.41
2023-08-13T16:02:38.968Z,39.17
2023-08-13T16:05:08.852Z,38.91
2023-08-13T16:07:37.870Z,38.67
2023-08-13T16:10:08.223Z,38.44
2023-08-13T16:12:37.380Z,38.23
2023-08-13T16:15:11.377Z,38.02
2023-08-13T16:17:44.353Z,37.85
2023-08-13T16:20:15.352Z,37.68
2023-08-13T16:22:45.110Z,37.52
2023-08-13T16:25:14.312Z,37.38
2023-08-13T16:27:43.025Z,37.24
2023-08-13T16:30:15.006Z,37.10
2023-08-13T16:32:45.631Z,36.99
2023-08-13T16:35:15.208Z,36.90
2023-08-13T16:37:44.312Z,36.81
2023-08-13T16:40:14.699Z,36.71
2023-08-13T16:42:54.972Z,36.63
2023-08-13T16:45:34.040Z,36.53
2023-08-13T16:48:03.168Z,36.46
2023-08-13T16:50:33.504Z,36.40
2023-08-13T16:53:02.537Z,36.34
2023-08-13T16:55:32.710Z,36.28
2023-08-13T16:58:03.710Z,36.22
2023-08-13T17:00:34.887Z,36.15
2023-08-13T17:03:03.576Z,36.08
2023-08-13T17:05:33.016Z,36.02
2023-08-13T17:08:02.540Z,35.94
2023-08-13T17:10:32.316Z,35.89
2023-08-13T17:13:02.529Z,35.82
2023-08-13T17:15:33.804Z,35.73
2023-08-13T17:18:03.935Z,35.66
2023-08-13T17:20:33.691Z,35.56
2023-08-13T17:23:03.560Z,35.46
2023-08-13T17:25:32.802Z,35.36
2023-08-13T17:28:01.342Z,35.26
2023-08-13T17:30:32.729Z,35.17
2023-08-13T17:33:02.722Z,35.06
2023-08-13T17:35:31.701Z,34.96
2023-08-13T17:38:01.960Z,34.84
2023-08-13T17:40:32.221Z,34.74
2023-08-13T17:43:02.488Z,34.63
2023-08-13T17:45:32.121Z,34.52
2023-08-13T17:48:03.221Z,34.39
2023-08-13T17:50:32.811Z,34.28
2023-08-13T17:53:01.438Z,34.18
2023-08-13T17:55:31.696Z,34.07
2023-08-13T17:58:01.405Z,33.97
2023-08-13T18:00:31.070Z,33.86
2023-08-13T18:03:02.729Z,33.74
2023-08-13T18:05:33.174Z,33.66
2023-08-13T18:08:14.926Z,33.56
2023-08-13T18:10:45.600Z,33.44
2023-08-13T18:13:15.683Z,33.34
2023-08-13T18:15:45.043Z,33.24
2023-08-13T18:18:15.834Z,33.15
2023-08-13T18:20:44.959Z,33.06
2023-08-13T18:23:15.118Z,32.97
2023-08-13T18:25:44.573Z,32.86
2023-08-13T18:28:14.394Z,32.77
2023-08-13T18:30:47.681Z,32.70
2023-08-13T18:33:18.124Z,32.61
2023-08-13T18:35:46.798Z,32.52
2023-08-13T18:38:17.901Z,32.45
2023-08-13T18:40:46.406Z,32.37
2023-08-13T18:43:14.984Z,32.29
2023-08-13T18:45:43.607Z,32.22
2023-08-13T18:48:13.056Z,32.15
2023-08-13T18:50:43.048Z,32.08
2023-08-13T18:53:13.218Z,32.04
2023-08-13T18:55:41.958Z,31.96
2023-08-13T18:58:13.260Z,31.88
2023-08-13T19:00:44.456Z,31.82
2023-08-13T19:03:15.709Z,31.77
2023-08-13T19:05:47.743Z,31.71
2023-08-13T19:08:17.934Z,31.67
2023-08-13T19:10:48.564Z,31.60
2023-08-13T19:13:19.625Z,31.55
2023-08-13T19:15:49.461Z,31.50
2023-08-13T19:18:19.757Z,31.46
2023-08-13T19:20:51.385Z,31.40
2023-08-13T19:23:23.676Z,31.34
2023-08-13T19:25:53.344Z,31.31
2023-08-13T19:28:23.779Z,31.24
2023-08-13T19:30:55.532Z,31.19
2023-08-13T19:33:26.059Z,31.15
2023-08-13T19:35:58.186Z,31.09
2023-08-13T19:38:27.731Z,31.05
2023-08-13T19:40:59.410Z,31.00
2023-08-13T19:43:30.171Z,30.95
2023-08-13T19:46:01.034Z,30.89
2023-08-13T19:48:31.109Z,30.85
2023-08-13T19:51:01.733Z,30.79
2023-08-13T19:53:30.665Z,30.75
2023-08-13T19:56:00.419Z,30.71
2023-08-13T19:58:29.816Z,30.67
2023-08-13T20:01:02.561Z,30.60
2023-08-13T20:03:32.097Z,30.54
2023-08-13T20:06:03.106Z,30.49
2023-08-13T20:08:32.112Z,30.46
2023-08-13T20:11:01.710Z,30.41
2023-08-13T20:13:31.258Z,30.37
2023-08-13T20:16:07.573Z,30.28
2023-08-13T20:18:37.211Z,30.27
2023-08-13T20:21:09.161Z,30.22
2023-08-13T20:23:39.196Z,30.19
2023-08-13T20:26:09.016Z,30.14
2023-08-13T20:28:39.028Z,30.09
2023-08-13T20:31:09.905Z,30.06
2023-08-13T20:33:40.191Z,30.02
2023-08-13T20:36:11.295Z,29.99
2023-08-13T20:38:40.104Z,29.96
2023-08-13T20:41:09.711Z,29.92
2023-08-13T20:43:39.516Z,29.89
2023-08-13T20:46:08.805Z,29.84
2023-08-13T20:48:38.030Z,29.82
2023-08-13T20:51:07.880Z,29.78
2023-08-13T20:53:39.200Z,29.75
2023-08-13T20:56:09.063Z,29.72
2023-08-13T20:58:38.316Z,29.68
2023-08-13T21:01:07.617Z,29.65
2023-08-13T21:03:36.206Z,29.61
2023-08-13T21:06:04.894Z,29.59
2023-08-13T21:08:33.336Z,29.56
2023-08-13T21:11:03.119Z,29.52
2023-08-13T21:13:31.584Z,29.48
2023-08-13T21:16:00.031Z,29.44
2023-08-13T21:18:28.598Z,29.42
2023-08-13T21:20:57.097Z,29.38
2023-08-13T21:23:26.126Z,29.35
2023-08-13T21:25:54.565Z,29.30
2023-08-13T21:28:24.432Z,29.24
2023-08-13T21:30:53.075Z,29.21
2023-08-13T21:33:21.783Z,29.15
2023-08-13T21:35:50.234Z,29.11
2023-08-13T21:38:18.776Z,29.09
2023-08-13T21:40:47.253Z,29.02
2023-08-13T21:43:15.904Z,28.99
2023-08-13T21:45:45.732Z,28.96
2023-08-13T21:48:14.321Z,28.94
2023-08-13T21:50:43.045Z,28.92
2023-08-13T21:53:11.548Z,28.89
2023-08-13T21:55:40.031Z,28.86
2023-08-13T21:58:08.522Z,28.84
2023-08-13T22:00:37.057Z,28.81
2023-08-13T22:03:08.384Z,28.78
2023-08-13T22:05:42.300Z,28.73
2023-08-13T22:08:10.980Z,28.72
2023-08-13T22:10:39.440Z,28.68
2023-08-13T22:13:08.394Z,28.64
2023-08-13T22:15:36.901Z,28.61
2023-08-13T22:18:07.494Z,28.58
2023-08-13T22:20:36.055Z,28.56
2023-08-13T22:23:05.253Z,28.52
2023-08-13T22:25:33.707Z,28.48
2023-08-13T22:28:02.225Z,28.46
2023-08-13T22:30:30.815Z,28.43
2023-08-13T22:32:59.416Z,28.41
2023-08-13T22:35:29.269Z,28.37
2023-08-13T22:37:57.787Z,28.34
2023-08-13T22:40:26.367Z,28.30
2023-08-13T22:42:54.855Z,28.28
2023-08-13T22:45:23.632Z,28.25
2023-08-13T22:47:52.234Z,28.22
2023-08-13T22:50:20.897Z,28.20
2023-08-13T22:52:51.413Z,28.16
2023-08-13T22:55:20.160Z,28.12
2023-08-13T22:57:49.315Z,28.10
2023-08-13T23:00:20.649Z,28.07
2023-08-13T23:02:49.187Z,28.05
2023-08-13T23:05:17.933Z,28.01
2023-08-13T23:07:46.399Z,27.98
2023-08-13T23:10:16.402Z,27.95
2023-08-13T23:12:44.941Z,27.92
2023-08-13T23:15:14.146Z,27.90
2023-08-13T23:17:42.759Z,27.86
2023-08-13T23:20:13.466Z,27.82
2023-08-13T23:22:42.750Z,27.78
2023-08-13T23:25:11.559Z,27.75
2023-08-13T23:27:41.451Z,27.71
2023-08-13T23:30:11.870Z,27.68
2023-08-13T23:32:40.499Z,27.65
2023-08-13T23:35:10.205Z,27.62
2023-08-13T23:37:38.755Z,27.62
2023-08-13T23:40:10.225Z,27.58
2023-08-13T23:42:40.112Z,27.57
2023-08-13T23:45:09.494Z,27.54
2023-08-13T23:47:37.991Z,27.50
2023-08-13T23:50:07.940Z,27.48
2023-08-13T23:52:36.448Z,27.45
2023-08-13T23:55:05.460Z,27.43
2023-08-13T23:57:34.016Z,27.41
